Time;durP1;ratioP1;P1;durP2;ratioP2;P2;SDS_P1;SDS_P2;PMS_P1;PMS_P2;Temp;Humidity;BMP_temperature;BMP_pressure;BME280_temperature;BME280_humidity;BME280_pressure;Samples;Min_cycle;Max_cycle;Signal;HPM_P1;HPM_P2
2021/06/26 00:00:59;;;;;;;40.45;23.75;;;21.80;79.00;;;;;;5116382;27;20031;-75
2021/06/26 00:03:26;;;;;;;41.88;24.48;;;21.90;79.10;;;;;;5125544;27;20080;-75
2021/06/26 00:05:53;;;;;;;49.17;25.05;;;21.80;79.10;;;;;;5115846;28;20056;-76
2021/06/26 00:08:19;;;;;;;41.00;25.52;;;21.80;79.20;;;;;;5114920;27;20054;-75
2021/06/26 00:10:46;;;;;;;39.97;24.58;;;21.80;79.20;;;;;;5132521;27;20091;-75
2021/06/26 00:13:14;;;;;;;35.22;22.48;;;21.80;79.20;;;;;;5127220;27;20050;-75
2021/06/26 00:15:40;;;;;;;38.30;23.52;;;21.70;79.10;;;;;;5116194;28;20444;-75
2021/06/26 00:18:06;;;;;;;40.90;23.85;;;21.80;78.90;;;;;;5108130;27;20059;-76
2021/06/26 00:20:31;;;;;;;39.72;23.73;;;21.70;78.90;;;;;;5128658;27;20114;-75
2021/06/26 00:22:57;;;;;;;41.92;24.08;;;21.70;79.70;;;;;;5099698;27;20032;-75
2021/06/26 00:25:23;;;;;;;48.10;25.08;;;21.80;79.20;;;;;;5096777;27;20043;-75
2021/06/26 00:27:53;;;;;;;38.97;23.17;;;21.70;79.20;;;;;;5108629;27;20032;-75
2021/06/26 00:30:21;;;;;;;37.90;24.13;;;21.70;79.20;;;;;;5120503;27;20051;-75
2021/06/26 00:32:47;;;;;;;40.35;24.65;;;21.70;79.30;;;;;;5113712;28;20468;-75
2021/06/26 00:35:13;;;;;;;39.13;24.38;;;21.70;79.40;;;;;;5116597;27;20027;-75
2021/06/26 00:37:41;;;;;;;37.22;23.02;;;21.70;79.40;;;;;;5126836;27;20019;-75
2021/06/26 00:40:08;;;;;;;42.28;24.70;;;21.60;79.40;;;;;;5122205;27;20027;-75
2021/06/26 00:42:35;;;;;;;35.97;24.30;;;21.70;79.60;;;;;;5109116;27;20023;-75
2021/06/26 00:45:04;;;;;;;38.42;24.20;;;21.70;79.80;;;;;;5108204;28;20036;-75
2021/06/26 00:47:29;;;;;;;42.38;24.73;;;21.60;79.70;;;;;;5113533;28;20038;-75
2021/06/26 00:49:58;;;;;;;38.33;23.52;;;21.60;79.70;;;;;;5111687;28;20035;-75
2021/06/26 00:52:24;;;;;;;37.50;23.83;;;21.60;79.80;;;;;;5116172;27;20050;-75
2021/06/26 00:54:51;;;;;;;35.03;22.27;;;21.60;79.80;;;;;;5117582;27;20070;-75
2021/06/26 00:57:18;;;;;;;38.92;24.17;;;21.60;79.80;;;;;;5110221;28;20020;-75
2021/06/26 00:59:44;;;;;;;37.92;23.58;;;21.60;79.80;;;;;;5114017;28;20035;-75
2021/06/26 01:02:10;;;;;;;39.30;22.20;;;21.60;79.90;;;;;;5109169;28;20030;-75
2021/06/26 01:04:36;;;;;;;42.70;23.20;;;21.60;80.00;;;;;;5113702;28;20023;-75
2021/06/26 01:07:02;;;;;;;39.50;23.38;;;21.60;80.00;;;;;;5108896;28;20028;-75
2021/06/26 01:09:28;;;;;;;36.58;22.20;;;21.60;80.00;;;;;;5094868;28;20518;-74
2021/06/26 01:11:57;;;;;;;39.28;22.25;;;21.60;80.00;;;;;;5113034;28;20027;-75
2021/06/26 01:14:30;;;;;;;34.53;19.90;;;21.60;80.10;;;;;;5112871;27;20066;-76
2021/06/26 01:17:03;;;;;;;40.50;21.50;;;21.60;80.20;;;;;;5113297;28;20121;-76
2021/06/26 01:19:28;;;;;;;;;;;21.60;80.10;;;;;;5091405;28;20478;-76
2021/06/26 01:21:54;;;;;;;40.72;20.50;;;21.60;79.70;;;;;;5113661;28;19918;-76
2021/06/26 01:24:21;;;;;;;31.58;20.67;;;21.60;79.70;;;;;;5124411;27;20028;-76
2021/06/26 01:26:46;;;;;;;40.58;21.33;;;21.60;79.90;;;;;;5114175;28;20102;-76
2021/06/26 01:29:12;;;;;;;37.70;21.08;;;21.50;79.80;;;;;;5121571;27;20031;-76
2021/06/26 01:31:38;;;;;;;37.88;21.83;;;21.50;79.80;;;;;;5112217;28;20351;-76
2021/06/26 01:34:04;;;;;;;37.53;20.88;;;21.50;79.80;;;;;;5105914;28;20085;-76
2021/06/26 01:36:30;;;;;;;32.75;20.60;;;21.50;79.90;;;;;;5117970;27;20027;-76
2021/06/26 01:38:58;;;;;;;34.65;20.60;;;21.50;80.00;;;;;;5104290;28;20402;-76
2021/06/26 01:41:27;;;;;;;39.13;21.88;;;21.50;80.10;;;;;;5114007;28;20034;-76
2021/06/26 01:43:53;;;;;;;35.10;20.42;;;21.50;79.90;;;;;;5111219;28;20042;-76
2021/06/26 01:46:19;;;;;;;36.42;21.25;;;21.50;79.80;;;;;;5114973;27;20016;-76
2021/06/26 01:48:45;;;;;;;37.13;21.45;;;21.50;79.80;;;;;;5114292;27;20126;-76
2021/06/26 01:51:11;;;;;;;33.00;18.35;;;21.50;79.80;;;;;;5112352;28;20024;-76
2021/06/26 01:53:37;;;;;;;34.13;19.90;;;21.50;79.70;;;;;;5113111;28;20453;-76
2021/06/26 01:56:02;;;;;;;41.58;22.35;;;21.50;79.80;;;;;;5114627;27;20028;-76
2021/06/26 01:58:28;;;;;;;37.70;22.13;;;21.50;79.80;;;;;;5104507;28;20024;-75
2021/06/26 02:00:54;;;;;;;35.67;21.40;;;21.40;79.80;;;;;;5112494;28;20027;-76
2021/06/26 02:03:19;;;;;;;41.72;20.85;;;21.50;80.00;;;;;;5111144;27;20028;-75
2021/06/26 02:05:45;;;;;;;33.78;22.13;;;21.50;80.00;;;;;;5109781;28;20066;-76
2021/06/26 02:08:11;;;;;;;41.47;22.77;;;21.50;80.10;;;;;;5114457;28;20039;-76
2021/06/26 02:10:37;;;;;;;33.55;21.65;;;21.40;80.10;;;;;;5112659;28;20023;-76
2021/06/26 02:13:03;;;;;;;41.35;22.15;;;21.50;80.20;;;;;;5111758;28;20027;-76
2021/06/26 02:15:29;;;;;;;33.65;19.92;;;21.50;80.20;;;;;;5116281;28;20551;-76
2021/06/26 02:17:54;;;;;;;35.08;22.05;;;21.40;79.30;;;;;;5114479;28;20031;-76
2021/06/26 02:20:20;;;;;;;36.13;20.48;;;21.40;79.60;;;;;;5111101;28;20055;-76
2021/06/26 02:22:46;;;;;;;32.17;20.63;;;21.30;79.50;;;;;;5114156;28;20071;-76
2021/06/26 02:25:16;;;;;;;38.25;22.77;;;21.30;79.30;;;;;;5114898;28;20038;-76
2021/06/26 02:27:46;;;;;;;35.75;21.45;;;21.30;79.70;;;;;;5105990;28;20019;-76
2021/06/26 02:30:13;;;;;;;39.00;24.33;;;21.30;79.80;;;;;;5106051;28;20032;-76
2021/06/26 02:32:40;;;;;;;41.20;25.23;;;21.30;80.00;;;;;;5117883;27;20023;-76
2021/06/26 02:35:07;;;;;;;41.63;24.15;;;21.30;80.50;;;;;;5115054;27;20036;-76
2021/06/26 02:37:33;;;;;;;44.85;26.42;;;21.20;80.60;;;;;;5117706;27;20475;-76
2021/06/26 02:39:59;;;;;;;42.03;24.23;;;21.30;80.80;;;;;;5118023;27;20185;-76
2021/06/26 02:42:25;;;;;;;38.25;23.13;;;21.30;80.70;;;;;;5116428;28;20033;-76
2021/06/26 02:44:51;;;;;;;41.55;23.48;;;21.30;80.20;;;;;;5107662;27;20031;-75
2021/06/26 02:47:18;;;;;;;42.00;22.85;;;21.30;80.50;;;;;;5118049;27;20106;-75
2021/06/26 02:49:44;;;;;;;44.53;24.30;;;21.30;80.70;;;;;;5113910;27;20119;-75
2021/06/26 02:52:09;;;;;;;44.33;25.13;;;21.30;80.80;;;;;;5106959;27;20113;-75
2021/06/26 02:54:35;;;;;;;41.33;25.30;;;21.20;80.60;;;;;;5118956;27;20038;-75
2021/06/26 02:57:01;;;;;;;47.22;24.75;;;21.30;80.80;;;;;;5097333;28;20058;-75
2021/06/26 02:59:27;;;;;;;41.35;24.73;;;21.20;81.00;;;;;;5117764;27;20038;-75
2021/06/26 03:01:53;;;;;;;47.10;25.42;;;21.20;81.10;;;;;;5117983;27;20079;-76
2021/06/26 03:04:19;;;;;;;37.67;22.30;;;21.30;81.10;;;;;;5115755;28;20059;-75
2021/06/26 03:06:45;;;;;;;42.00;25.58;;;21.20;80.80;;;;;;5115723;28;20023;-75
2021/06/26 03:09:11;;;;;;;41.05;25.40;;;21.20;80.80;;;;;;5115122;28;20402;-75
2021/06/26 03:11:36;;;;;;;41.28;25.25;;;21.20;80.80;;;;;;5109436;28;20078;-75
2021/06/26 03:14:02;;;;;;;38.85;24.73;;;21.20;80.70;;;;;;5112994;27;20038;-75
2021/06/26 03:16:28;;;;;;;39.63;24.17;;;21.20;80.80;;;;;;5115811;27;20023;-75
2021/06/26 03:18:53;;;;;;;41.25;24.00;;;21.10;80.70;;;;;;5118373;27;20036;-76
2021/06/26 03:21:19;;;;;;;43.80;23.52;;;21.10;80.80;;;;;;5115045;28;20063;-76
2021/06/26 03:23:45;;;;;;;39.90;23.33;;;21.10;80.70;;;;;;5115449;28;20062;-75
2021/06/26 03:26:10;;;;;;;41.90;25.75;;;21.10;80.70;;;;;;5118063;27;20023;-76
2021/06/26 03:28:37;;;;;;;43.03;24.80;;;21.00;80.60;;;;;;5128914;27;20031;-76
2021/06/26 03:31:05;;;;;;;50.17;25.30;;;21.00;80.60;;;;;;5114497;28;20535;-76
2021/06/26 03:33:30;;;;;;;44.00;25.65;;;21.00;80.90;;;;;;5115524;28;20541;-76
2021/06/26 03:35:56;;;;;;;44.63;25.58;;;21.00;81.00;;;;;;5122222;27;20104;-76
2021/06/26 03:38:22;;;;;;;53.38;25.67;;;21.00;81.10;;;;;;5114705;28;20106;-76
2021/06/26 03:40:51;;;;;;;48.85;26.05;;;21.00;80.70;;;;;;5116420;28;20106;-76
2021/06/26 03:43:17;;;;;;;43.70;24.83;;;21.00;80.40;;;;;;5113219;28;20026;-76
2021/06/26 03:45:43;;;;;;;39.40;23.73;;;20.90;80.10;;;;;;5115077;28;20420;-74
2021/06/26 03:48:09;;;;;;;45.65;25.48;;;21.00;80.00;;;;;;5114468;28;20067;-76
2021/06/26 03:50:36;;;;;;;44.70;25.23;;;20.90;80.30;;;;;;5108773;27;20038;-76
2021/06/26 03:53:01;;;;;;;43.22;25.45;;;20.90;80.80;;;;;;5118640;27;20027;-75
2021/06/26 03:55:27;;;;;;;41.63;25.95;;;20.90;80.90;;;;;;5124020;27;20035;-75
2021/06/26 03:57:53;;;;;;;45.45;25.83;;;20.90;81.10;;;;;;5123335;27;20026;-76
2021/06/26 04:00:18;;;;;;;46.97;24.88;;;21.00;81.10;;;;;;5124903;27;20114;-76
2021/06/26 04:02:44;;;;;;;43.00;24.58;;;21.00;81.10;;;;;;5123506;27;20027;-74
2021/06/26 04:05:10;;;;;;;42.97;25.08;;;21.00;81.10;;;;;;5127565;27;20024;-75
2021/06/26 04:07:36;;;;;;;49.83;27.33;;;21.00;81.10;;;;;;5137811;27;20046;-75
2021/06/26 04:10:02;;;;;;;44.47;27.20;;;21.00;81.10;;;;;;5136929;27;20130;-75
2021/06/26 04:12:27;;;;;;;46.30;26.40;;;21.00;81.30;;;;;;5115980;28;20471;-76
2021/06/26 04:14:53;;;;;;;45.78;26.45;;;21.10;81.70;;;;;;5121352;27;20034;-75
2021/06/26 04:17:18;;;;;;;47.90;26.83;;;21.10;81.40;;;;;;5113365;27;20498;-75
2021/06/26 04:19:44;;;;;;;46.85;26.63;;;21.00;81.50;;;;;;5111816;27;20395;-76
2021/06/26 04:22:11;;;;;;;48.92;27.20;;;21.10;81.70;;;;;;5116455;27;20023;-76
2021/06/26 04:24:37;;;;;;;47.03;25.75;;;21.10;81.60;;;;;;5129937;27;20023;-76
2021/06/26 04:27:03;;;;;;;46.92;26.33;;;21.10;82.20;;;;;;5125160;27;20379;-75
2021/06/26 04:29:29;;;;;;;40.58;24.23;;;21.10;81.50;;;;;;5120831;27;20050;-76
2021/06/26 04:31:54;;;;;;;41.53;24.55;;;21.10;81.30;;;;;;5115320;27;20035;-76
2021/06/26 04:34:20;;;;;;;46.35;24.23;;;21.10;81.20;;;;;;5117761;27;20110;-75
2021/06/26 04:36:49;;;;;;;37.30;22.50;;;21.10;81.10;;;;;;5126135;27;20029;-75
2021/06/26 04:39:15;;;;;;;39.65;23.23;;;21.10;80.80;;;;;;5113601;27;20368;-75
2021/06/26 04:41:44;;;;;;;41.40;22.80;;;21.10;80.60;;;;;;5117139;27;20023;-75
2021/06/26 04:44:09;;;;;;;42.45;23.10;;;21.00;80.90;;;;;;5118232;27;20066;-76
2021/06/26 04:46:36;;;;;;;41.05;22.85;;;21.10;80.90;;;;;;5106189;28;20047;-76
2021/06/26 04:49:04;;;;;;;42.53;23.25;;;21.00;80.40;;;;;;5107322;28;20387;-76
2021/06/26 04:51:32;;;;;;;37.83;23.25;;;21.00;80.70;;;;;;5106788;28;20038;-76
2021/06/26 04:53:58;;;;;;;40.25;22.88;;;21.00;80.50;;;;;;5108945;27;20051;-76
2021/06/26 04:56:24;;;;;;;40.25;23.80;;;21.00;80.50;;;;;;5107505;27;20055;-75
2021/06/26 04:58:49;;;;;;;41.10;24.30;;;21.00;80.60;;;;;;5114831;27;20054;-76
2021/06/26 05:01:15;;;;;;;40.15;23.10;;;21.00;80.80;;;;;;5112341;27;20031;-76
2021/06/26 05:03:41;;;;;;;44.25;24.92;;;21.00;81.00;;;;;;5108856;28;20023;-76
2021/06/26 05:06:07;;;;;;;42.97;25.70;;;21.00;81.30;;;;;;5114738;28;20032;-75
2021/06/26 05:08:33;;;;;;;42.65;24.70;;;21.10;81.50;;;;;;5095268;28;20047;-76
2021/06/26 05:10:58;;;;;;;40.22;23.10;;;21.00;81.50;;;;;;5116887;27;20019;-76
2021/06/26 05:13:24;;;;;;;45.40;24.13;;;21.10;81.30;;;;;;5107946;28;20027;-76
2021/06/26 05:15:50;;;;;;;45.88;24.83;;;21.10;81.10;;;;;;5112751;27;20054;-79
2021/06/26 05:18:16;;;;;;;41.17;24.70;;;21.10;81.30;;;;;;5116491;27;20028;-72
2021/06/26 05:20:42;;;;;;;41.17;24.35;;;21.10;81.60;;;;;;5113432;28;20035;-80
2021/06/26 05:23:16;;;;;;;43.45;26.80;;;21.20;81.60;;;;;;5111551;28;20531;-78
2021/06/26 05:25:42;;;;;;;42.85;26.08;;;21.20;81.70;;;;;;5113558;28;20038;-79
2021/06/26 05:28:07;;;;;;;44.72;25.02;;;21.20;81.70;;;;;;5114769;27;22322;-78
2021/06/26 05:30:36;;;;;;;44.15;24.25;;;21.30;81.60;;;;;;5119402;27;20081;-78
2021/06/26 05:33:01;;;;;;;47.85;24.77;;;21.20;81.40;;;;;;5124292;27;20024;-78
2021/06/26 05:35:27;;;;;;;44.78;24.88;;;21.30;81.60;;;;;;5113284;28;20024;-78
2021/06/26 05:37:53;;;;;;;43.60;25.23;;;21.30;81.80;;;;;;5120626;27;20335;-78
2021/06/26 05:40:18;;;;;;;43.03;25.13;;;21.20;82.00;;;;;;5118081;27;20051;-79
2021/06/26 05:42:44;;;;;;;51.55;25.35;;;21.20;81.90;;;;;;5119742;27;20035;-79
2021/06/26 05:45:13;;;;;;;47.08;26.95;;;21.30;82.20;;;;;;5117279;27;20031;-79
2021/06/26 05:47:38;;;;;;;48.45;27.48;;;21.40;83.10;;;;;;5113557;27;20022;-78
2021/06/26 05:50:05;;;;;;;43.22;24.98;;;21.40;82.30;;;;;;5086751;28;20490;-78
2021/06/26 05:52:31;;;;;;;44.78;27.85;;;21.40;82.00;;;;;;5113704;27;20024;-80
2021/06/26 05:54:57;;;;;;;42.58;26.27;;;21.40;81.60;;;;;;5108932;27;20020;-78
2021/06/26 05:57:23;;;;;;;53.28;27.85;;;21.40;82.00;;;;;;5112632;28;20382;-80
2021/06/26 05:59:49;;;;;;;43.88;26.55;;;21.40;82.40;;;;;;5106803;28;20043;-81
2021/06/26 06:02:15;;;;;;;46.25;26.92;;;21.40;82.50;;;;;;5117853;27;20023;-80
2021/06/26 06:04:41;;;;;;;50.88;27.05;;;21.50;82.60;;;;;;5104406;28;20028;-80
2021/06/26 06:07:08;;;;;;;51.42;28.17;;;21.60;82.40;;;;;;5118311;28;20119;-81
2021/06/26 06:09:34;;;;;;;44.80;23.48;;;21.60;82.40;;;;;;5119563;27;20268;-80
2021/06/26 06:12:00;;;;;;;47.33;23.88;;;21.60;81.60;;;;;;5119554;28;20024;-80
2021/06/26 06:14:26;;;;;;;52.00;27.63;;;21.60;80.70;;;;;;5118817;28;20027;-80
2021/06/26 06:16:52;;;;;;;50.05;26.90;;;21.60;80.80;;;;;;5120363;28;20471;-81
2021/06/26 06:19:18;;;;;;;43.17;24.25;;;21.60;80.50;;;;;;5087860;28;20032;-81
2021/06/26 06:21:47;;;;;;;39.40;24.73;;;21.70;80.90;;;;;;5099440;28;20059;-80
2021/06/26 06:24:13;;;;;;;49.72;27.52;;;21.70;79.40;;;;;;5117354;28;20019;-81
2021/06/26 06:26:38;;;;;;;54.38;28.10;;;21.70;79.60;;;;;;5108175;28;20049;-81
2021/06/26 06:29:07;;;;;;;49.45;29.13;;;21.70;80.00;;;;;;5117842;28;20061;-80
2021/06/26 06:31:33;;;;;;;47.65;25.55;;;21.80;80.10;;;;;;5112361;28;20038;-80
2021/06/26 06:33:58;;;;;;;50.17;28.70;;;21.80;80.00;;;;;;5110785;28;20027;-80
2021/06/26 06:36:24;;;;;;;46.95;26.48;;;21.80;80.10;;;;;;5107649;28;20375;-81
2021/06/26 06:38:50;;;;;;;46.45;24.77;;;21.80;79.60;;;;;;5122306;28;20412;-81
2021/06/26 06:41:16;;;;;;;49.45;27.48;;;21.80;79.20;;;;;;5098893;28;20040;-81
2021/06/26 06:43:41;;;;;;;54.08;29.65;;;21.80;78.70;;;;;;5127462;28;20512;-80
2021/06/26 06:46:07;;;;;;;50.88;30.08;;;21.80;79.00;;;;;;5127806;28;20023;-80
2021/06/26 06:48:33;;;;;;;50.92;29.70;;;21.80;79.40;;;;;;5119539;28;20066;-80
2021/06/26 06:50:59;;;;;;;50.15;28.90;;;21.80;79.70;;;;;;5121339;28;20114;-76
2021/06/26 06:53:24;;;;;;;46.22;28.40;;;21.80;79.90;;;;;;5106616;28;20117;-78
2021/06/26 06:55:51;;;;;;;55.40;29.90;;;21.90;79.80;;;;;;5125654;28;20039;-80
2021/06/26 06:58:19;;;;;;;50.58;28.05;;;21.90;79.50;;;;;;5112475;28;20027;-80
2021/06/26 07:00:46;;;;;;;52.65;30.10;;;22.00;79.70;;;;;;5111752;28;20027;-80
2021/06/26 07:03:12;;;;;;;52.92;30.10;;;22.00;79.30;;;;;;5115322;28;20414;-79
2021/06/26 07:05:38;;;;;;;50.17;29.42;;;22.00;79.40;;;;;;5114837;28;20028;-79
2021/06/26 07:08:04;;;;;;;51.08;29.38;;;22.00;78.90;;;;;;5117651;28;20028;-79
2021/06/26 07:10:29;;;;;;;55.95;28.65;;;22.00;79.40;;;;;;5123931;28;20039;-81
2021/06/26 07:12:55;;;;;;;49.17;29.05;;;22.10;79.20;;;;;;5120267;28;20189;-81
2021/06/26 07:15:21;;;;;;;46.08;27.17;;;22.10;79.20;;;;;;5133918;27;20028;-81
2021/06/26 07:17:46;;;;;;;48.65;27.10;;;22.10;79.00;;;;;;5143352;27;20016;-81
2021/06/26 07:20:12;;;;;;;45.20;26.75;;;22.20;79.20;;;;;;5136719;27;20035;-80
2021/06/26 07:22:38;;;;;;;48.97;27.13;;;22.20;78.90;;;;;;5105879;27;20473;-81
2021/06/26 07:25:05;;;;;;;42.35;25.55;;;22.30;79.40;;;;;;5127602;27;20149;-80
2021/06/26 07:27:30;;;;;;;46.63;29.33;;;22.30;78.90;;;;;;5121754;27;20506;-80
2021/06/26 07:29:56;;;;;;;48.30;28.85;;;22.30;78.60;;;;;;5123370;27;20043;-80
2021/06/26 07:32:22;;;;;;;42.55;25.90;;;22.30;79.40;;;;;;5121246;27;20015;-79
2021/06/26 07:34:48;;;;;;;43.05;26.27;;;22.40;79.00;;;;;;5134159;27;20055;-79
2021/06/26 07:37:13;;;;;;;43.60;26.77;;;22.50;78.70;;;;;;5126335;27;20482;-78
2021/06/26 07:39:39;;;;;;;40.05;25.05;;;22.50;77.60;;;;;;5120598;27;20023;-72
2021/06/26 07:42:05;;;;;;;40.83;24.08;;;22.50;77.60;;;;;;5122608;27;20063;-76
2021/06/26 07:44:31;;;;;;;43.30;25.52;;;22.60;77.60;;;;;;5116797;27;20027;-76
2021/06/26 07:46:57;;;;;;;47.10;25.55;;;22.60;77.80;;;;;;5122799;27;20061;-77
2021/06/26 07:49:22;;;;;;;41.53;26.02;;;22.60;77.40;;;;;;5101378;27;20039;-77
2021/06/26 07:51:48;;;;;;;35.35;20.23;;;22.70;77.40;;;;;;5119212;27;20029;-77
2021/06/26 07:54:16;;;;;;;33.30;19.63;;;22.70;77.30;;;;;;5119056;27;20039;-77
2021/06/26 07:56:46;;;;;;;35.90;20.25;;;22.80;76.30;;;;;;5119629;27;20024;-77
2021/06/26 07:59:13;;;;;;;42.15;22.50;;;22.80;75.50;;;;;;5120337;27;20424;-77
2021/06/26 08:01:39;;;;;;;37.35;21.88;;;22.80;75.70;;;;;;5120856;27;20054;-76
2021/06/26 08:04:05;;;;;;;41.80;22.42;;;22.90;76.00;;;;;;5120079;27;20024;-77
2021/06/26 08:06:31;;;;;;;44.70;24.55;;;22.90;75.60;;;;;;5100916;28;20464;-76
2021/06/26 08:08:57;;;;;;;43.63;24.20;;;23.00;75.60;;;;;;5116290;27;20047;-76
2021/06/26 08:11:22;;;;;;;38.03;23.00;;;22.90;75.70;;;;;;5120199;27;20493;-76
2021/06/26 08:13:50;;;;;;;37.63;21.15;;;23.00;75.80;;;;;;5124805;27;20038;-76
2021/06/26 08:16:16;;;;;;;38.88;23.02;;;23.10;75.00;;;;;;5114796;27;20035;-76
2021/06/26 08:18:41;;;;;;;35.65;18.92;;;23.20;75.20;;;;;;5125180;27;20045;-76
2021/06/26 08:21:07;;;;;;;36.30;20.17;;;23.20;74.10;;;;;;5132363;27;20019;-76
2021/06/26 08:23:33;;;;;;;39.70;22.92;;;23.20;73.80;;;;;;5147447;27;20060;-77
2021/06/26 08:25:59;;;;;;;41.92;23.60;;;23.20;73.70;;;;;;5139055;27;20032;-76
2021/06/26 08:28:25;;;;;;;38.72;22.88;;;23.30;73.90;;;;;;5123724;27;20024;-76
2021/06/26 08:30:50;;;;;;;36.40;21.98;;;23.40;73.90;;;;;;5124952;27;20044;-77
2021/06/26 08:33:16;;;;;;;30.17;18.77;;;23.40;73.10;;;;;;5121261;27;20019;-76
2021/06/26 08:35:43;;;;;;;32.90;17.95;;;23.40;73.10;;;;;;5121804;27;20028;-76
2021/06/26 08:38:08;;;;;;;28.92;18.33;;;23.40;72.90;;;;;;5127195;27;20733;-76
2021/06/26 08:40:35;;;;;;;31.92;17.10;;;23.30;72.80;;;;;;5120200;27;20118;-74
2021/06/26 08:43:00;;;;;;;26.02;15.77;;;23.40;72.70;;;;;;5104022;27;20035;-76
2021/06/26 08:45:29;;;;;;;28.88;18.27;;;23.30;72.70;;;;;;5125202;27;20110;-75
2021/06/26 08:47:56;;;;;;;28.80;16.20;;;23.30;73.30;;;;;;5114411;27;20138;-81
2021/06/26 08:50:26;;;;;;;30.23;18.52;;;23.30;73.40;;;;;;5116358;27;20130;-79
2021/06/26 08:52:52;;;;;;;28.95;18.65;;;23.40;72.70;;;;;;5120587;27;20542;-80
2021/06/26 08:55:18;;;;;;;29.13;16.10;;;23.40;72.90;;;;;;5121828;27;20153;-79
2021/06/26 08:57:45;;;;;;;32.60;17.42;;;23.60;72.70;;;;;;5112904;27;20102;-79
2021/06/26 09:00:13;;;;;;;24.73;16.15;;;23.60;72.80;;;;;;5117367;27;20028;-78
2021/06/26 09:02:39;;;;;;;26.27;15.77;;;23.60;72.80;;;;;;5112474;27;20028;-79
2021/06/26 09:05:06;;;;;;;27.08;16.05;;;23.70;72.50;;;;;;5103097;27;20401;-77
2021/06/26 09:07:35;;;;;;;27.10;16.48;;;23.80;72.60;;;;;;5119456;27;20019;-77
2021/06/26 09:10:29;;;;;;;25.00;15.75;;;23.80;72.10;;;;;;5124782;27;20047;-77
2021/06/26 09:12:55;;;;;;;26.77;16.70;;;23.90;72.00;;;;;;5099894;27;20439;-77
2021/06/26 09:15:27;;;;;;;25.70;14.68;;;23.80;71.90;;;;;;5128437;27;20378;-76
2021/06/26 09:17:54;;;;;;;25.90;16.85;;;23.80;71.70;;;;;;5113644;27;20032;-77
2021/06/26 09:20:23;;;;;;;27.85;16.33;;;23.90;71.70;;;;;;5098832;27;20024;-77
2021/06/26 09:22:54;;;;;;;23.70;15.10;;;24.00;71.40;;;;;;5120021;27;20375;-78
2021/06/26 09:25:30;;;;;;;29.35;15.88;;;24.00;71.20;;;;;;5119099;27;20095;-76
2021/06/26 09:27:58;;;;;;;26.70;15.80;;;24.10;71.20;;;;;;5118320;27;20043;-76
2021/06/26 09:30:35;;;;;;;23.00;14.45;;;24.20;72.10;;;;;;5145841;27;20064;-76
2021/06/26 09:33:10;;;;;;;28.08;16.00;;;24.30;72.40;;;;;;5145265;27;20054;-77
2021/06/26 09:35:35;;;;;;;21.88;13.10;;;24.40;71.10;;;;;;5126084;27;20034;-77
2021/06/26 09:38:05;;;;;;;22.10;14.25;;;24.40;70.90;;;;;;5113135;27;20032;-77
2021/06/26 09:40:31;;;;;;;19.33;12.80;;;24.40;70.50;;;;;;5117521;27;20390;-73
2021/06/26 09:42:58;;;;;;;26.33;13.65;;;24.40;70.70;;;;;;5106387;27;20484;-74
2021/06/26 09:45:24;;;;;;;25.95;14.05;;;24.30;70.70;;;;;;5112400;28;20046;-75
2021/06/26 09:47:50;;;;;;;22.33;12.38;;;24.30;70.60;;;;;;5113390;27;20570;-74
2021/06/26 09:50:26;;;;;;;17.25;11.27;;;24.30;70.50;;;;;;5118424;27;20019;-77
2021/06/26 09:52:57;;;;;;;22.30;13.25;;;24.30;70.50;;;;;;5110657;27;20035;-78
2021/06/26 09:55:28;;;;;;;22.85;13.73;;;24.30;70.30;;;;;;5109231;28;20157;-82
2021/06/26 09:58:00;;;;;;;21.20;13.15;;;24.40;70.20;;;;;;5115862;27;20069;-77
2021/06/26 10:00:28;;;;;;;23.85;13.82;;;24.40;70.00;;;;;;5112329;28;20035;-75
2021/06/26 10:02:55;;;;;;;20.85;13.25;;;24.40;70.30;;;;;;5114538;27;20027;-77
2021/06/26 10:05:21;;;;;;;25.15;14.23;;;24.50;70.40;;;;;;5112805;28;20030;-81
2021/06/26 10:07:48;;;;;;;28.33;12.85;;;24.60;70.30;;;;;;5116080;28;20040;-77
2021/06/26 10:10:17;;;;;;;22.17;12.02;;;24.60;69.30;;;;;;5104364;28;20043;-78
2021/06/26 10:12:44;;;;;;;22.20;14.05;;;24.70;69.80;;;;;;5105655;28;20050;-82
2021/06/26 10:15:12;;;;;;;20.90;13.02;;;24.70;69.30;;;;;;5121116;28;20055;-78
2021/06/26 10:17:38;;;;;;;23.65;14.95;;;24.80;69.40;;;;;;5103496;28;20045;-77
2021/06/26 10:20:05;;;;;;;24.23;13.45;;;24.80;68.90;;;;;;5120573;28;20024;-76
2021/06/26 10:22:37;;;;;;;33.65;19.08;;;24.90;68.70;;;;;;5117872;28;20030;-75
2021/06/26 10:25:03;;;;;;;35.95;20.80;;;24.90;70.10;;;;;;5098499;28;20423;-82
2021/06/26 10:27:29;;;;;;;36.95;21.58;;;25.00;71.10;;;;;;5132035;28;20496;-76
2021/06/26 10:29:57;;;;;;;43.38;23.02;;;25.00;71.20;;;;;;5125852;28;20043;-77
2021/06/26 10:32:23;;;;;;;38.33;22.13;;;25.10;71.50;;;;;;5127747;28;20038;-78
2021/06/26 10:34:50;;;;;;;40.08;24.05;;;25.10;71.70;;;;;;5130365;28;20032;-78
2021/06/26 10:37:23;;;;;;;37.42;22.17;;;25.10;71.90;;;;;;5127485;28;20023;-78
2021/06/26 10:40:02;;;;;;;39.53;24.05;;;25.20;72.20;;;;;;5118447;28;20039;-79
2021/06/26 10:42:33;;;;;;;39.33;24.40;;;25.20;72.20;;;;;;5113326;28;20031;-75
2021/06/26 10:45:00;;;;;;;47.38;25.77;;;25.10;72.10;;;;;;5120866;28;20027;-78
2021/06/26 10:47:37;;;;;;;41.50;23.98;;;25.20;72.20;;;;;;5096976;28;20536;-74
2021/06/26 10:50:17;;;;;;;43.72;23.75;;;25.20;72.30;;;;;;5116548;28;20028;-83
2021/06/26 10:52:52;;;;;;;38.45;21.77;;;25.20;72.40;;;;;;5106385;28;20046;-84
2021/06/26 10:55:32;;;;;;;47.05;22.63;;;25.20;72.70;;;;;;5133348;27;20031;-77
2021/06/26 10:58:01;;;;;;;39.72;22.50;;;25.20;72.70;;;;;;5121872;27;20035;-73
2021/06/26 11:00:37;;;;;;;38.30;23.30;;;25.20;72.80;;;;;;5113284;28;20023;-76
2021/06/26 11:03:04;;;;;;;38.83;24.02;;;25.20;72.80;;;;;;5117512;27;20378;-76
2021/06/26 11:05:32;;;;;;;38.58;23.13;;;25.20;73.10;;;;;;5123851;27;20032;-80
2021/06/26 11:07:58;;;;;;;39.38;24.10;;;25.20;73.40;;;;;;5124858;27;20031;-80
2021/06/26 11:10:25;;;;;;;37.92;24.10;;;25.20;73.40;;;;;;5133105;27;20048;-79
2021/06/26 11:12:53;;;;;;;38.45;24.13;;;25.20;73.40;;;;;;5123572;27;20008;-78
2021/06/26 11:15:27;;;;;;;43.40;24.50;;;25.20;73.40;;;;;;5120614;27;20153;-78
2021/06/26 11:17:53;;;;;;;38.08;23.77;;;25.20;73.00;;;;;;5131714;27;20039;-76
2021/06/26 11:20:21;;;;;;;37.10;21.85;;;25.20;72.70;;;;;;5137747;28;20079;-77
2021/06/26 11:22:52;;;;;;;31.40;20.77;;;25.20;72.40;;;;;;5139390;28;20042;-77
2021/06/26 11:25:18;;;;;;;33.38;20.50;;;25.20;72.50;;;;;;5122214;27;20031;-77
2021/06/26 11:27:44;;;;;;;32.80;19.85;;;25.20;72.50;;;;;;5117703;27;20040;-77
2021/06/26 11:30:12;;;;;;;38.08;20.85;;;25.20;72.50;;;;;;5114345;27;20043;-77
2021/06/26 11:32:38;;;;;;;31.15;21.10;;;25.20;73.00;;;;;;5113108;28;20028;-76
2021/06/26 11:35:17;;;;;;;33.88;20.55;;;25.20;72.80;;;;;;5116825;28;20379;-76
2021/06/26 11:37:48;;;;;;;35.80;22.08;;;25.20;72.60;;;;;;5114531;28;20027;-77
2021/06/26 11:40:14;;;;;;;38.90;23.33;;;25.20;72.60;;;;;;5129757;27;20051;-81
2021/06/26 11:42:49;;;;;;;37.42;23.00;;;25.20;73.00;;;;;;5117904;28;20028;-76
2021/06/26 11:45:16;;;;;;;38.42;23.55;;;25.30;73.00;;;;;;5121920;27;20432;-81
2021/06/26 11:47:42;;;;;;;36.72;23.50;;;25.30;73.00;;;;;;5111056;28;20021;-83
2021/06/26 11:50:19;;;;;;;37.78;22.92;;;25.30;72.80;;;;;;5113221;28;20126;-82
2021/06/26 11:52:45;;;;;;;37.85;23.75;;;25.20;73.00;;;;;;5106473;28;20360;-80
2021/06/26 11:55:12;;;;;;;40.00;23.15;;;25.20;72.80;;;;;;5108880;27;20039;-79
2021/06/26 11:57:38;;;;;;;38.20;21.15;;;25.30;72.90;;;;;;5113884;28;20031;-80
2021/06/26 12:00:07;;;;;;;38.78;22.73;;;25.20;72.80;;;;;;5113997;28;20077;-81
2021/06/26 12:02:39;;;;;;;32.63;17.08;;;25.20;72.40;;;;;;5111156;27;20020;-77
2021/06/26 12:05:06;;;;;;;31.90;14.60;;;25.20;72.70;;;;;;5114833;28;20099;-77
2021/06/26 12:07:36;;;;;;;24.40;16.45;;;25.20;73.90;;;;;;5112511;28;20375;-77
2021/06/26 12:10:04;;;;;;;30.85;19.65;;;25.20;74.40;;;;;;5097386;28;20157;-77
2021/06/26 12:12:36;;;;;;;31.17;16.58;;;25.20;74.90;;;;;;5113320;28;20091;-76
2021/06/26 12:15:04;;;;;;;35.83;21.05;;;25.20;75.00;;;;;;5107724;28;20475;-77
2021/06/26 12:17:29;;;;;;;34.40;17.08;;;25.10;75.30;;;;;;5106039;28;20028;-77
2021/06/26 12:20:05;;;;;;;39.53;21.60;;;25.10;75.80;;;;;;5111475;27;20501;-77
2021/06/26 12:22:32;;;;;;;39.53;21.85;;;25.10;75.90;;;;;;5113835;28;20027;-77
2021/06/26 12:25:17;;;;;;;40.20;20.98;;;25.00;75.80;;;;;;5113819;28;20390;-77
2021/06/26 12:27:43;;;;;;;43.28;23.38;;;25.10;76.20;;;;;;5111168;28;20115;-77